Time;durP1;ratioP1;P1;durP2;ratioP2;P2;SDS_P1;SDS_P2;PMS_P1;PMS_P2;Temp;Humidity;BMP_temperature;BMP_pressure;BME280_temperature;BME280_humidity;BME280_pressure;Samples;Min_cycle;Max_cycle;Signal;HPM_P1;HPM_P2
2023/07/02 00:00:12;;;;;;;8.93;4.25;;;15.90;87.30;;;;;;5053088;28;20627;-44
2023/07/02 00:02:39;;;;;;;15.27;4.72;;;15.90;87.40;;;;;;5054877;28;20031;-47
2023/07/02 00:05:07;;;;;;;11.77;5.00;;;16.00;87.40;;;;;;5062374;28;20024;-42
2023/07/02 00:07:36;;;;;;;8.75;4.53;;;16.00;87.70;;;;;;5057777;28;20036;-48
2023/07/02 00:10:03;;;;;;;12.75;5.70;;;16.00;88.00;;;;;;5065740;28;20055;-46
2023/07/02 00:12:30;;;;;;;10.35;6.03;;;16.00;88.40;;;;;;5056896;28;20037;-45
2023/07/02 00:14:58;;;;;;;11.75;4.80;;;16.00;88.80;;;;;;5056691;28;20054;-43
2023/07/02 00:17:25;;;;;;;6.93;4.30;;;15.90;88.90;;;;;;5055414;28;20370;-44
2023/07/02 00:19:51;;;;;;;10.00;4.90;;;15.90;89.00;;;;;;5075121;28;20028;-44
2023/07/02 00:22:18;;;;;;;11.27;6.05;;;15.90;89.30;;;;;;5075186;28;20060;-44
2023/07/02 00:24:45;;;;;;;10.52;6.10;;;15.80;89.30;;;;;;5056964;28;20029;-44
2023/07/02 00:27:15;;;;;;;10.35;5.18;;;15.70;89.50;;;;;;5073560;28;20450;-43
2023/07/02 00:29:42;;;;;;;15.10;5.50;;;15.70;89.70;;;;;;5063559;28;20324;-43
2023/07/02 00:32:09;;;;;;;10.68;5.28;;;15.70;89.70;;;;;;5070166;28;20028;-43
2023/07/02 00:34:37;;;;;;;10.38;5.35;;;15.70;89.80;;;;;;5070553;28;20043;-43
2023/07/02 00:37:04;;;;;;;13.23;6.47;;;15.60;89.80;;;;;;5068768;28;20033;-43
2023/07/02 00:39:33;;;;;;;14.40;5.65;;;15.60;89.80;;;;;;5074809;28;20045;-43
2023/07/02 00:42:04;;;;;;;11.70;6.37;;;15.60;89.80;;;;;;5066001;28;20336;-44
2023/07/02 00:44:30;;;;;;;13.60;5.65;;;15.50;89.70;;;;;;5068685;28;20021;-43
2023/07/02 00:46:57;;;;;;;8.05;5.78;;;15.50;89.70;;;;;;5070575;28;20060;-43
2023/07/02 00:49:24;;;;;;;14.02;5.93;;;15.40;89.90;;;;;;5056902;28;20441;-43
2023/07/02 00:51:51;;;;;;;15.35;6.22;;;15.40;89.90;;;;;;5074465;28;20044;-44
2023/07/02 00:54:20;;;;;;;12.20;5.80;;;15.40;90.10;;;;;;5064719;28;20032;-43
2023/07/02 00:56:47;;;;;;;9.82;5.30;;;15.40;90.30;;;;;;5055477;28;20374;-42
2023/07/02 00:59:15;;;;;;;14.13;7.18;;;15.40;90.20;;;;;;5070902;28;20060;-43
2023/07/02 01:01:42;;;;;;;14.68;5.78;;;15.40;90.10;;;;;;5063713;28;20086;-43
2023/07/02 01:04:09;;;;;;;10.93;5.85;;;15.30;89.90;;;;;;5053481;28;20079;-42
2023/07/02 01:06:40;;;;;;;8.95;5.20;;;15.30;90.00;;;;;;5056131;28;20025;-44
2023/07/02 01:09:08;;;;;;;15.02;5.80;;;15.30;90.00;;;;;;5068496;28;20055;-42
2023/07/02 01:11:53;;;;;;;10.35;4.95;;;15.30;89.90;;;;;;5072872;28;20460;-44
2023/07/02 01:14:19;;;;;;;15.57;5.90;;;15.30;89.90;;;;;;5071714;28;20035;-42
2023/07/02 01:16:47;;;;;;;12.82;5.25;;;15.20;89.80;;;;;;5070017;28;20048;-45
2023/07/02 01:19:24;;;;;;;;;;;15.20;89.70;;;;;;5073819;28;20052;-43
2023/07/02 01:21:51;;;;;;;11.27;4.55;;;15.20;89.70;;;;;;5055706;28;19934;-42
2023/07/02 01:24:18;;;;;;;8.30;5.20;;;15.20;89.60;;;;;;5057987;28;20085;-43
2023/07/02 01:26:45;;;;;;;9.20;5.75;;;15.10;89.60;;;;;;5053553;28;20028;-43
2023/07/02 01:29:30;;;;;;;13.82;6.50;;;15.10;89.60;;;;;;5053489;28;20024;-41
2023/07/02 01:31:59;;;;;;;16.05;5.30;;;15.00;89.50;;;;;;5070744;28;20353;-42
2023/07/02 01:34:26;;;;;;;17.25;5.85;;;15.00;89.50;;;;;;5072384;28;20366;-44
2023/07/02 01:36:53;;;;;;;12.70;5.13;;;14.90;89.60;;;;;;5062750;28;20072;-42
2023/07/02 01:39:20;;;;;;;13.90;5.35;;;14.90;89.70;;;;;;5071091;28;20538;-42
2023/07/02 01:41:52;;;;;;;14.55;6.55;;;14.90;89.60;;;;;;5072094;28;20052;-42
2023/07/02 01:44:19;;;;;;;8.48;4.97;;;14.80;89.60;;;;;;5060009;28;20022;-43
2023/07/02 01:46:50;;;;;;;15.88;6.72;;;14.80;89.70;;;;;;5072179;28;20158;-43
2023/07/02 01:49:18;;;;;;;12.95;6.53;;;14.80;89.60;;;;;;5050842;28;20036;-42
2023/07/02 01:51:52;;;;;;;12.55;5.65;;;14.70;89.80;;;;;;5049630;28;20062;-43
2023/07/02 01:54:20;;;;;;;18.52;5.93;;;14.70;89.60;;;;;;5071552;28;20127;-43
2023/07/02 01:56:47;;;;;;;12.85;6.22;;;14.70;89.80;;;;;;5071844;28;20154;-43
2023/07/02 01:59:13;;;;;;;14.00;5.70;;;14.60;89.80;;;;;;5052055;28;20048;-43
2023/07/02 02:01:40;;;;;;;13.10;6.53;;;14.60;89.70;;;;;;5069295;28;20029;-42
2023/07/02 02:04:10;;;;;;;18.40;7.47;;;14.60;89.70;;;;;;5050095;28;20513;-43
2023/07/02 02:06:38;;;;;;;11.32;6.93;;;14.60;89.70;;;;;;5057914;28;20596;-42
2023/07/02 02:09:05;;;;;;;16.38;7.72;;;14.60;89.60;;;;;;5041930;28;20029;-42
2023/07/02 02:11:33;;;;;;;25.25;8.70;;;14.60;89.60;;;;;;5055564;28;20031;-44
2023/07/02 02:14:01;;;;;;;19.02;7.15;;;14.60;89.40;;;;;;5052962;28;20346;-43
2023/07/02 02:16:27;;;;;;;18.33;7.00;;;14.50;89.40;;;;;;5066455;28;20170;-42
2023/07/02 02:18:54;;;;;;;22.60;9.45;;;14.50;89.30;;;;;;5063853;28;20565;-43
2023/07/02 02:21:22;;;;;;;17.38;8.45;;;14.50;89.20;;;;;;5068225;28;20039;-42
2023/07/02 02:23:48;;;;;;;20.95;8.80;;;14.50;89.30;;;;;;5067268;28;20060;-43
2023/07/02 02:26:21;;;;;;;17.10;7.65;;;14.50;89.20;;;;;;5059669;28;20020;-44
2023/07/02 02:28:48;;;;;;;19.45;9.82;;;14.50;89.00;;;;;;5064224;28;20021;-42
2023/07/02 02:31:21;;;;;;;16.42;7.88;;;14.40;88.90;;;;;;5052419;28;20028;-42
2023/07/02 02:33:48;;;;;;;23.02;9.25;;;14.40;88.90;;;;;;5071960;28;20017;-42
2023/07/02 02:36:17;;;;;;;21.35;7.97;;;14.40;88.60;;;;;;5068559;28;20017;-42
2023/07/02 02:38:44;;;;;;;23.38;8.80;;;14.40;88.50;;;;;;5052474;28;20025;-42
2023/07/02 02:41:11;;;;;;;22.88;8.75;;;14.40;88.40;;;;;;5070877;28;20020;-42
2023/07/02 02:43:43;;;;;;;20.67;8.60;;;14.40;88.30;;;;;;5055694;28;20028;-46
2023/07/02 02:46:11;;;;;;;20.38;8.43;;;14.40;88.50;;;;;;5060395;28;20023;-44
2023/07/02 02:48:38;;;;;;;18.23;8.68;;;14.40;88.30;;;;;;5072453;28;20070;-42
2023/07/02 02:51:07;;;;;;;25.00;10.40;;;14.40;88.10;;;;;;5072487;28;20206;-42
2023/07/02 02:53:34;;;;;;;17.13;8.83;;;14.40;88.00;;;;;;5060970;28;20078;-43
2023/07/02 02:56:01;;;;;;;22.70;10.05;;;14.30;87.80;;;;;;5069132;28;20310;-43
2023/07/02 02:58:28;;;;;;;21.20;9.55;;;14.30;87.70;;;;;;5056997;28;20025;-42
2023/07/02 03:00:55;;;;;;;24.50;10.32;;;14.30;87.70;;;;;;5070804;28;20040;-42
2023/07/02 03:03:25;;;;;;;25.95;9.40;;;14.30;87.50;;;;;;5069791;28;20106;-43
2023/07/02 03:05:52;;;;;;;20.17;8.82;;;14.20;87.30;;;;;;5052692;28;20040;-43
2023/07/02 03:08:17;;;;;;;23.60;9.18;;;14.20;87.50;;;;;;5064748;28;20488;-42
2023/07/02 03:10:44;;;;;;;26.73;10.50;;;14.20;87.40;;;;;;5071295;28;20033;-41
2023/07/02 03:13:11;;;;;;;25.48;10.82;;;14.30;87.40;;;;;;5066474;28;20028;-43
2023/07/02 03:15:36;;;;;;;22.23;10.55;;;14.20;87.50;;;;;;5067708;28;20434;-46
2023/07/02 03:18:03;;;;;;;19.63;10.00;;;14.20;87.70;;;;;;5052068;28;20040;-42
2023/07/02 03:20:30;;;;;;;23.13;10.18;;;14.20;88.00;;;;;;5052114;28;20029;-43
2023/07/02 03:22:57;;;;;;;23.48;10.10;;;14.30;87.90;;;;;;5062020;28;20051;-43
2023/07/02 03:25:24;;;;;;;22.80;10.45;;;14.40;88.10;;;;;;5071257;28;20021;-43
2023/07/02 03:27:51;;;;;;;21.88;10.00;;;14.30;87.80;;;;;;5066368;28;20057;-43
2023/07/02 03:30:18;;;;;;;20.15;8.52;;;14.30;87.60;;;;;;5067583;28;20042;-43
2023/07/02 03:32:44;;;;;;;22.73;10.00;;;14.30;87.70;;;;;;5075178;28;20399;-42
2023/07/02 03:35:13;;;;;;;22.75;9.40;;;14.30;87.50;;;;;;5064209;28;20020;-42
2023/07/02 03:37:43;;;;;;;20.50;9.03;;;14.30;87.50;;;;;;5067712;28;20041;-42
2023/07/02 03:40:10;;;;;;;20.73;8.95;;;14.20;87.50;;;;;;5068488;28;20305;-43
2023/07/02 03:42:37;;;;;;;20.83;9.13;;;14.20;87.30;;;;;;5057543;28;20657;-42
2023/07/02 03:45:04;;;;;;;20.00;9.73;;;14.20;87.60;;;;;;5075415;28;20372;-43
2023/07/02 03:47:31;;;;;;;22.45;9.43;;;14.20;87.60;;;;;;5062353;28;20082;-42
2023/07/02 03:50:01;;;;;;;27.45;10.75;;;14.10;87.70;;;;;;5056966;28;20393;-41
2023/07/02 03:52:27;;;;;;;24.23;9.65;;;14.10;87.50;;;;;;5060347;28;20409;-42
2023/07/02 03:54:54;;;;;;;24.92;10.88;;;14.10;87.70;;;;;;5074012;28;20064;-42
2023/07/02 03:57:21;;;;;;;24.65;10.93;;;14.10;87.70;;;;;;5055902;28;20029;-42
2023/07/02 03:59:48;;;;;;;28.25;11.25;;;14.20;87.70;;;;;;5056405;28;20035;-42
2023/07/02 04:02:15;;;;;;;25.45;8.90;;;14.30;87.90;;;;;;5069441;28;20025;-42
2023/07/02 04:04:44;;;;;;;26.02;10.27;;;14.40;87.90;;;;;;5055355;28;20079;-43
2023/07/02 04:07:11;;;;;;;25.77;10.85;;;14.40;87.70;;;;;;5071779;28;20029;-42
2023/07/02 04:09:38;;;;;;;32.90;11.40;;;14.40;87.70;;;;;;5074917;28;20044;-42
2023/07/02 04:12:05;;;;;;;23.40;10.07;;;14.40;87.60;;;;;;5071751;28;20033;-41
2023/07/02 04:14:32;;;;;;;27.30;11.18;;;14.50;87.60;;;;;;5055527;28;20053;-42
2023/07/02 04:17:00;;;;;;;29.58;11.07;;;14.40;87.20;;;;;;5070000;28;20677;-42
2023/07/02 04:19:25;;;;;;;31.30;10.60;;;14.40;87.40;;;;;;5053996;28;20028;-42
2023/07/02 04:21:51;;;;;;;29.75;11.30;;;14.40;87.30;;;;;;5056229;28;20040;-44
2023/07/02 04:24:18;;;;;;;25.13;9.85;;;14.50;87.30;;;;;;5060458;28;20534;-43
2023/07/02 04:26:44;;;;;;;23.50;10.20;;;14.40;87.20;;;;;;5054822;28;20044;-42
2023/07/02 04:29:11;;;;;;;26.75;12.23;;;14.50;87.00;;;;;;5062895;28;20111;-42
2023/07/02 04:31:38;;;;;;;35.90;12.40;;;14.50;86.90;;;;;;5073696;28;20067;-43
2023/07/02 04:34:06;;;;;;;24.00;10.32;;;14.50;86.70;;;;;;5070682;28;20028;-41
2023/07/02 04:36:32;;;;;;;22.08;10.27;;;14.60;86.80;;;;;;5074758;28;20445;-42
2023/07/02 04:38:59;;;;;;;33.38;10.05;;;14.60;86.70;;;;;;5056041;28;20044;-42
2023/07/02 04:41:27;;;;;;;29.65;11.80;;;14.70;86.70;;;;;;5066931;28;20021;-41
2023/07/02 04:43:53;;;;;;;27.20;11.60;;;14.90;86.60;;;;;;5055884;28;20112;-43
2023/07/02 04:46:18;;;;;;;28.65;12.32;;;14.90;86.60;;;;;;5072090;28;20485;-42
2023/07/02 04:48:45;;;;;;;24.25;10.35;;;15.00;86.20;;;;;;5072336;28;20338;-42
2023/07/02 04:51:11;;;;;;;23.10;10.10;;;15.10;86.10;;;;;;5074206;28;20416;-41
2023/07/02 04:53:39;;;;;;;27.02;12.60;;;15.20;86.10;;;;;;5073371;28;20020;-41
2023/07/02 04:56:05;;;;;;;23.13;10.75;;;15.20;85.80;;;;;;5073805;28;20028;-42
2023/07/02 04:58:33;;;;;;;23.83;10.95;;;15.20;86.20;;;;;;5069423;28;20100;-43
2023/07/02 05:01:00;;;;;;;18.55;9.25;;;15.30;86.00;;;;;;5072818;28;20104;-42
2023/07/02 05:03:27;;;;;;;23.05;10.10;;;15.40;86.00;;;;;;5074240;28;20024;-42
2023/07/02 05:05:53;;;;;;;28.73;11.55;;;15.40;85.60;;;;;;5055995;28;20051;-43
2023/07/02 05:08:20;;;;;;;28.23;11.38;;;15.60;85.50;;;;;;5068236;28;20373;-42
2023/07/02 05:10:47;;;;;;;24.60;9.80;;;15.60;84.80;;;;;;5052341;28;20032;-41
2023/07/02 05:13:14;;;;;;;24.30;11.05;;;15.70;84.60;;;;;;5054313;28;20090;-42
2023/07/02 05:15:40;;;;;;;25.45;9.75;;;15.80;84.20;;;;;;5057708;28;20588;-42
2023/07/02 05:18:07;;;;;;;37.75;12.65;;;15.80;84.40;;;;;;5071545;28;20170;-43
2023/07/02 05:20:34;;;;;;;22.27;9.93;;;15.70;84.10;;;;;;5055747;28;20515;-42
2023/07/02 05:23:01;;;;;;;25.98;10.75;;;15.60;83.90;;;;;;5073780;28;20056;-44
2023/07/02 05:25:26;;;;;;;22.15;8.63;;;15.60;84.30;;;;;;5054466;28;20025;-42
2023/07/02 05:27:55;;;;;;;22.48;10.43;;;15.40;84.60;;;;;;5054247;28;20033;-43
2023/07/02 05:30:22;;;;;;;36.00;12.30;;;15.40;84.70;;;;;;5069740;28;20556;-42
2023/07/02 05:32:48;;;;;;;22.52;9.90;;;15.30;85.40;;;;;;5073879;28;20025;-42
2023/07/02 05:35:15;;;;;;;24.63;11.25;;;15.30;85.40;;;;;;5062629;28;20510;-42
2023/07/02 05:37:43;;;;;;;24.50;11.10;;;15.30;84.70;;;;;;5053874;28;20484;-43
2023/07/02 05:40:12;;;;;;;23.67;11.48;;;15.40;85.10;;;;;;5060040;28;20033;-42
2023/07/02 05:42:39;;;;;;;;;;;15.40;84.50;;;;;;5053959;28;20033;-42
2023/07/02 05:45:06;;;;;;;22.50;10.18;;;15.40;84.50;;;;;;5051725;28;19908;-43
2023/07/02 05:47:37;;;;;;;27.73;10.10;;;15.50;84.60;;;;;;5064718;28;20328;-42
2023/07/02 05:50:05;;;;;;;24.80;9.85;;;15.50;84.10;;;;;;5053348;28;20029;-44
2023/07/02 05:52:30;;;;;;;22.27;9.57;;;15.60;83.80;;;;;;5053308;28;20079;-44
2023/07/02 05:54:57;;;;;;;25.02;10.40;;;15.70;83.70;;;;;;5062728;28;20028;-43
2023/07/02 05:57:24;;;;;;;20.95;8.82;;;15.60;83.20;;;;;;5073010;28;20025;-44
2023/07/02 05:59:51;;;;;;;25.08;10.05;;;15.70;83.20;;;;;;5071752;28;20040;-43
2023/07/02 06:02:18;;;;;;;18.77;10.98;;;15.80;82.40;;;;;;5052811;28;20024;-44
2023/07/02 06:04:45;;;;;;;24.52;9.88;;;15.90;82.80;;;;;;5072066;28;20358;-44
2023/07/02 06:07:13;;;;;;;16.95;8.48;;;16.00;82.80;;;;;;5054869;28;20043;-45
2023/07/02 06:09:40;;;;;;;20.38;9.77;;;16.30;82.20;;;;;;5058666;28;20090;-44
2023/07/02 06:12:07;;;;;;;22.05;9.82;;;16.40;81.60;;;;;;5053736;28;20033;-45
2023/07/02 06:14:33;;;;;;;19.35;9.45;;;16.70;80.60;;;;;;5071367;28;20480;-45
2023/07/02 06:17:05;;;;;;;19.13;9.40;;;16.80;80.20;;;;;;5052002;28;20052;-45
2023/07/02 06:19:32;;;;;;;21.80;9.93;;;16.90;78.90;;;;;;5052607;28;20369;-46
2023/07/02 06:21:59;;;;;;;23.80;8.55;;;16.80;79.10;;;;;;5072013;28;20052;-45
2023/07/02 06:24:27;;;;;;;25.58;8.90;;;16.70;78.50;;;;;;5053153;28;20017;-45
2023/07/02 06:26:54;;;;;;;20.85;8.65;;;16.70;78.30;;;;;;5055179;28;20036;-50
2023/07/02 06:29:23;;;;;;;18.15;8.30;;;16.60;78.50;;;;;;5072030;28;20028;-45
2023/07/02 06:31:50;;;;;;;20.42;10.40;;;16.40;78.70;;;;;;5072066;28;20036;-45
2023/07/02 06:34:19;;;;;;;20.65;9.40;;;16.60;78.90;;;;;;5055005;28;20075;-45
2023/07/02 06:36:48;;;;;;;16.02;8.05;;;16.70;79.10;;;;;;5055919;28;20166;-46
2023/07/02 06:39:15;;;;;;;21.90;9.70;;;16.90;78.20;;;;;;5054197;28;20037;-46
2023/07/02 06:41:41;;;;;;;20.83;8.75;;;16.90;76.90;;;;;;5069519;28;20108;-47
2023/07/02 06:44:08;;;;;;;14.77;8.45;;;17.20;77.00;;;;;;5055957;28;20028;-48
2023/07/02 06:46:35;;;;;;;21.60;8.20;;;17.20;76.00;;;;;;5070988;28;20052;-46
2023/07/02 06:49:01;;;;;;;16.38;7.18;;;17.10;76.00;;;;;;5069336;28;20063;-46
2023/07/02 06:51:29;;;;;;;17.88;7.50;;;17.20;75.90;;;;;;5069538;28;20078;-48
2023/07/02 06:53:59;;;;;;;15.20;6.80;;;17.00;75.10;;;;;;5071266;28;20097;-49
2023/07/02 06:56:26;;;;;;;17.08;7.65;;;17.20;75.70;;;;;;5070783;28;20469;-47
2023/07/02 06:58:53;;;;;;;19.25;7.82;;;17.40;74.50;;;;;;5070081;28;20093;-46
2023/07/02 07:01:20;;;;;;;20.60;7.85;;;17.50;74.50;;;;;;5053787;28;20033;-47
2023/07/02 07:03:47;;;;;;;22.65;6.90;;;17.80;73.60;;;;;;5072091;28;20039;-48
2023/07/02 07:06:17;;;;;;;15.77;6.93;;;17.90;73.90;;;;;;5073194;28;20028;-46
2023/07/02 07:08:47;;;;;;;14.13;5.75;;;18.00;72.40;;;;;;5074672;28;20043;-48
2023/07/02 07:11:14;;;;;;;15.80;6.90;;;18.20;71.80;;;;;;5073961;28;20377;-46
2023/07/02 07:13:43;;;;;;;16.10;6.35;;;18.10;71.20;;;;;;5074092;28;20036;-46
2023/07/02 07:16:10;;;;;;;10.98;5.93;;;17.80;72.00;;;;;;5072907;28;20123;-48
2023/07/02 07:18:37;;;;;;;15.85;5.88;;;18.00;71.30;;;;;;5073522;28;20028;-48
2023/07/02 07:21:04;;;;;;;13.55;5.35;;;18.40;69.00;;;;;;5076201;28;20028;-47
2023/07/02 07:23:31;;;;;;;10.02;4.47;;;18.50;66.60;;;;;;5074810;28;20024;-47
2023/07/02 07:25:56;;;;;;;14.00;5.00;;;18.40;68.20;;;;;;5075481;28;20029;-48
2023/07/02 07:28:23;;;;;;;14.70;3.80;;;18.20;65.70;;;;;;5064909;28;20090;-47
2023/07/02 07:30:51;;;;;;;9.88;3.60;;;17.80;67.30;;;;;;5073581;28;20028;-47
2023/07/02 07:33:18;;;;;;;12.35;4.90;;;17.60;70.90;;;;;;5072366;28;20032;-47
2023/07/02 07:35:44;;;;;;;12.75;3.85;;;17.40;72.00;;;;;;5075555;28;20024;-48
2023/07/02 07:38:14;;;;;;;11.60;4.82;;;17.30;73.30;;;;;;5074275;28;20056;-52
2023/07/02 07:40:45;;;;;;;18.65;5.55;;;17.60;72.90;;;;;;5088913;28;20036;-48
2023/07/02 07:43:12;;;;;;;12.02;5.15;;;18.30;71.90;;;;;;5063477;28;20025;-48
2023/07/02 07:45:38;;;;;;;18.00;5.90;;;18.60;69.80;;;;;;5082564;28;20025;-50
2023/07/02 07:48:05;;;;;;;17.25;5.43;;;18.70;68.90;;;;;;5069693;28;20066;-48
2023/07/02 07:50:32;;;;;;;12.45;5.35;;;18.70;69.00;;;;;;5095501;28;20034;-51
2023/07/02 07:52:59;;;;;;;15.18;6.45;;;19.20;69.90;;;;;;5073459;28;20040;-48
2023/07/02 07:55:26;;;;;;;15.88;5.75;;;19.40;68.30;;;;;;5057644;28;20024;-48
2023/07/02 07:57:54;;;;;;;16.75;6.13;;;19.40;66.90;;;;;;5070453;28;20034;-49
2023/07/02 08:00:21;;;;;;;15.18;6.93;;;19.20;67.60;;;;;;5080225;28;20031;-50
2023/07/02 08:02:48;;;;;;;17.27;6.32;;;18.70;68.90;;;;;;5082804;28;20365;-48
2023/07/02 08:05:15;;;;;;;12.65;4.90;;;18.30;69.90;;;;;;5061624;28;20054;-48
2023/07/02 08:07:42;;;;;;;16.50;4.38;;;18.20;67.10;;;;;;5074359;28;20048;-47
2023/07/02 08:10:09;;;;;;;11.68;4.65;;;18.50;65.80;;;;;;5063060;28;20103;-48
2023/07/02 08:12:36;;;;;;;13.50;4.53;;;19.10;63.20;;;;;;5072516;28;20032;-49
2023/07/02 08:15:02;;;;;;;16.27;4.63;;;19.30;62.00;;;;;;5073398;28;20031;-48
2023/07/02 08:17:30;;;;;;;9.60;4.35;;;19.20;60.60;;;;;;5070473;28;20032;-49
2023/07/02 08:19:58;;;;;;;10.27;3.83;;;18.90;61.50;;;;;;5074719;28;20025;-48
2023/07/02 08:22:25;;;;;;;11.48;4.38;;;18.50;63.50;;;;;;5072868;28;20360;-50
2023/07/02 08:24:51;;;;;;;10.43;5.03;;;18.70;64.00;;;;;;5088854;28;20645;-49
2023/07/02 08:27:23;;;;;;;11.85;4.80;;;19.10;65.20;;;;;;5074414;28;20839;-49
2023/07/02 08:29:50;;;;;;;11.38;4.18;;;19.40;62.80;;;;;;5070573;28;20078;-48
2023/07/02 08:32:17;;;;;;;11.32;4.35;;;19.10;63.10;;;;;;5054473;28;20365;-50
2023/07/02 08:34:44;;;;;;;6.95;3.50;;;18.80;63.60;;;;;;5073633;28;20036;-48
2023/07/02 08:37:11;;;;;;;12.73;4.20;;;19.40;62.40;;;;;;5073888;28;20051;-48
2023/07/02 08:39:45;;;;;;;12.23;3.78;;;19.40;60.10;;;;;;5071108;28;20085;-49
2023/07/02 08:42:12;;;;;;;13.60;3.08;;;19.10;60.40;;;;;;5071727;28;20031;-48
2023/07/02 08:44:38;;;;;;;11.80;3.33;;;18.90;60.30;;;;;;5055450;28;20392;-48
2023/07/02 08:47:06;;;;;;;11.70;3.58;;;18.50;63.50;;;;;;5073925;28;20059;-49
2023/07/02 08:49:33;;;;;;;10.18;3.80;;;18.20;66.10;;;;;;5074394;28;20028;-51
2023/07/02 08:51:59;;;;;;;12.20;4.15;;;18.40;68.00;;;;;;5063802;28;20039;-49
2023/07/02 08:54:26;;;;;;;10.27;3.42;;;18.70;66.00;;;;;;5069877;28;20411;-47
2023/07/02 08:56:53;;;;;;;11.85;3.85;;;18.40;65.10;;;;;;5069622;28;20066;-48
2023/07/02 08:59:23;;;;;;;11.38;3.65;;;18.20;65.30;;;;;;5073519;28;20020;-51
2023/07/02 09:01:52;;;;;;;13.05;3.22;;;18.10;65.30;;;;;;5070909;28;20033;-49
2023/07/02 09:04:25;;;;;;;12.40;3.30;;;18.10;64.90;;;;;;5074372;28;20028;-47
2023/07/02 09:07:10;;;;;;;10.27;4.07;;;18.60;65.00;;;;;;5072298;28;20020;-49
2023/07/02 09:09:51;;;;;;;11.30;3.60;;;18.90;63.90;;;;;;5071754;28;20178;-48
2023/07/02 09:12:31;;;;;;;10.18;3.58;;;19.90;62.60;;;;;;5063815;28;20028;-50
2023/07/02 09:15:19;;;;;;;12.48;3.47;;;20.50;59.50;;;;;;5073233;28;20626;-48
2023/07/02 09:17:46;;;;;;;11.00;4.47;;;20.90;59.20;;;;;;5060927;28;20029;-48
2023/07/02 09:20:12;;;;;;;11.45;3.85;;;21.00;59.50;;;;;;5072144;28;20054;-51
2023/07/02 09:22:43;;;;;;;11.20;4.55;;;21.10;57.40;;;;;;5074017;28;20082;-48
2023/07/02 09:25:11;;;;;;;14.00;4.22;;;20.10;58.10;;;;;;5071445;28;20020;-49
2023/07/02 09:27:41;;;;;;;11.80;4.30;;;19.50;60.00;;;;;;5079740;28;20473;-50
2023/07/02 09:30:15;;;;;;;11.23;4.00;;;19.40;61.40;;;;;;5073650;28;20060;-49
2023/07/02 09:32:44;;;;;;;6.70;3.30;;;19.40;61.70;;;;;;5071659;28;20043;-50
2023/07/02 09:35:11;;;;;;;14.32;4.10;;;19.30;61.40;;;;;;5064590;28;20028;-48
2023/07/02 09:37:41;;;;;;;11.65;5.00;;;19.40;61.60;;;;;;5052540;28;20028;-49
2023/07/02 09:40:08;;;;;;;;;;;19.80;60.50;;;;;;5054489;28;20752;-50
2023/07/02 09:42:38;;;;;;;12.55;3.53;;;20.20;59.10;;;;;;5069835;28;19919;-48
2023/07/02 09:45:08;;;;;;;10.90;4.10;;;20.50;58.20;;;;;;5071691;28;20119;-49
2023/07/02 09:47:41;;;;;;;11.52;3.83;;;20.70;58.40;;;;;;5067370;28;20037;-50
2023/07/02 09:50:09;;;;;;;17.60;5.32;;;20.90;59.10;;;;;;5085759;28;20047;-49
2023/07/02 09:52:36;;;;;;;16.02;4.18;;;21.20;58.10;;;;;;5060939;28;20017;-48
2023/07/02 09:55:04;;;;;;;11.95;3.63;;;21.00;56.30;;;;;;5062360;28;20043;-49
2023/07/02 09:57:31;;;;;;;14.73;4.05;;;20.20;56.80;;;;;;5064338;28;20035;-53
2023/07/02 10:00:02;;;;;;;9.50;3.80;;;19.80;59.20;;;;;;5069821;28;20495;-50
2023/07/02 10:02:29;;;;;;;15.73;3.70;;;19.40;60.50;;;;;;5062742;28;20025;-48
2023/07/02 10:04:56;;;;;;;9.38;3.35;;;19.30;62.70;;;;;;5066233;28;20032;-51
2023/07/02 10:07:34;;;;;;;9.68;3.78;;;19.80;61.40;;;;;;5070815;28;20032;-48
2023/07/02 10:10:04;;;;;;;17.35;4.07;;;19.90;60.10;;;;;;5069014;28;20082;-52
2023/07/02 10:12:30;;;;;;;13.93;4.22;;;19.70;59.40;;;;;;5069629;28;20069;-49
2023/07/02 10:14:58;;;;;;;10.65;2.97;;;19.70;58.60;;;;;;5062476;28;20032;-49
2023/07/02 10:17:34;;;;;;;9.15;3.55;;;20.10;56.00;;;;;;5073249;28;20045;-50
2023/07/02 10:20:07;;;;;;;13.80;3.22;;;20.60;56.40;;;;;;5052881;28;20028;-51
2023/07/02 10:22:45;;;;;;;13.85;4.15;;;20.80;57.00;;;;;;5072407;28;20044;-53
2023/07/02 10:25:12;;;;;;;9.13;3.45;;;20.30;57.40;;;;;;5070599;28;20024;-51
2023/07/02 10:27:40;;;;;;;14.75;3.05;;;19.90;58.00;;;;;;5069878;28;20031;-48
2023/07/02 10:30:07;;;;;;;14.23;3.55;;;19.90;60.40;;;;;;5068815;28;20505;-50
2023/07/02 10:32:35;;;;;;;9.27;3.08;;;19.80;57.90;;;;;;5069065;28;20032;-49
2023/07/02 10:35:20;;;;;;;11.50;2.95;;;19.40;56.40;;;;;;5070186;28;20024;-48
2023/07/02 10:37:47;;;;;;;9.55;3.05;;;19.00;58.90;;;;;;5055831;28;20389;-51
2023/07/02 10:40:15;;;;;;;9.82;2.90;;;19.20;56.30;;;;;;5062834;28;20752;-53
2023/07/02 10:43:02;;;;;;;8.88;3.08;;;19.70;56.50;;;;;;5075161;28;20116;-49
2023/07/02 10:45:35;;;;;;;9.32;2.92;;;20.60;56.60;;;;;;5056702;28;20361;-48
2023/07/02 10:48:11;;;;;;;10.25;2.70;;;20.40;54.10;;;;;;5050233;28;20033;-51
2023/07/02 10:50:38;;;;;;;10.57;3.13;;;20.00;55.50;;;;;;5070154;28;20102;-53
2023/07/02 10:53:07;;;;;;;6.93;2.45;;;19.50;54.70;;;;;;5066461;28;20039;-48
2023/07/02 10:55:34;;;;;;;4.75;1.83;;;19.60;53.50;;;;;;5071014;28;20033;-49
2023/07/02 10:58:04;;;;;;;11.50;2.72;;;19.90;55.00;;;;;;5071357;28;20028;-53
2023/07/02 11:00:33;;;;;;;6.90;2.40;;;20.10;56.00;;;;;;5066885;28;20028;-52
2023/07/02 11:03:00;;;;;;;7.32;2.17;;;20.10;53.60;;;;;;5073570;28;20511;-50
2023/07/02 11:05:29;;;;;;;9.30;2.25;;;20.10;56.50;;;;;;5076207;28;20409;-52
2023/07/02 11:08:08;;;;;;;10.47;2.60;;;20.30;52.90;;;;;;5066336;28;20385;-51
2023/07/02 11:10:34;;;;;;;6.55;1.88;;;20.10;52.60;;;;;;5056220;28;20290;-50
2023/07/02 11:13:21;;;;;;;8.75;2.10;;;20.60;52.70;;;;;;5046448;28;20037;-48
2023/07/02 11:15:47;;;;;;;13.15;2.00;;;21.20;51.40;;;;;;5066752;28;20048;-51
2023/07/02 11:18:20;;;;;;;13.20;2.95;;;21.20;50.20;;;;;;5069262;28;20462;-53
2023/07/02 11:20:47;;;;;;;10.15;3.00;;;21.00;52.60;;;;;;5064248;28;20407;-51
2023/07/02 11:23:34;;;;;;;11.13;3.10;;;21.30;54.90;;;;;;5066330;28;20039;-52
2023/07/02 11:26:02;;;;;;;12.75;2.58;;;21.90;51.90;;;;;;5048819;28;20041;-49
2023/07/02 11:28:34;;;;;;;8.23;3.03;;;21.60;51.00;;;;;;5045254;28;20373;-51
2023/07/02 11:31:05;;;;;;;7.03;2.30;;;21.20;51.10;;;;;;5066784;28;20028;-52
2023/07/02 11:33:49;;;;;;;7.38;2.30;;;21.60;51.20;;;;;;5068511;28;20039;-53
2023/07/02 11:36:26;;;;;;;7.90;2.10;;;21.50;50.60;;;;;;5050287;28;20082;-48
2023/07/02 11:38:55;;;;;;;8.90;2.42;;;20.50;51.20;;;;;;5070830;28;20047;-49
2023/07/02 11:41:22;;;;;;;6.22;2.20;;;20.30;54.10;;;;;;5058436;28;20048;-48
2023/07/02 11:43:47;;;;;;;10.98;2.38;;;19.80;51.80;;;;;;5050727;28;20031;-51
2023/07/02 11:46:18;;;;;;;5.53;2.28;;;19.60;53.60;;;;;;5064659;28;20029;-52
2023/07/02 11:48:44;;;;;;;8.38;2.58;;;19.50;55.70;;;;;;5071046;28;20035;-51
2023/07/02 11:51:11;;;;;;;10.48;2.85;;;19.50;55.30;;;;;;5073537;28;20102;-49
2023/07/02 11:53:37;;;;;;;12.43;3.00;;;19.90;57.60;;;;;;5069680;28;20029;-53
2023/07/02 11:56:03;;;;;;;8.55;2.70;;;20.10;54.30;;;;;;5074844;28;20059;-53
2023/07/02 11:58:30;;;;;;;9.85;3.17;;;19.90;54.60;;;;;;5056033;28;20029;-53
2023/07/02 12:00:57;;;;;;;12.27;3.08;;;19.70;55.70;;;;;;5071296;28;20063;-52
2023/07/02 12:03:22;;;;;;;7.50;2.30;;;19.90;56.90;;;;;;5062178;28;20028;-49
2023/07/02 12:05:49;;;;;;;5.85;2.22;;;20.50;56.30;;;;;;5058626;28;20375;-48
2023/07/02 12:08:16;;;;;;;9.95;2.92;;;20.40;52.90;;;;;;5072726;28;20036;-49
2023/07/02 12:10:43;;;;;;;15.05;3.30;;;20.00;54.30;;;;;;5072955;28;20770;-55
2023/07/02 12:13:09;;;;;;;7.72;2.17;;;20.00;55.50;;;;;;5065067;28;20032;-48
2023/07/02 12:15:35;;;;;;;6.55;2.88;;;20.40;55.10;;;;;;5075442;28;20135;-52
2023/07/02 12:18:03;;;;;;;6.07;1.80;;;20.90;50.00;;;;;;5075575;28;20547;-53
2023/07/02 12:20:30;;;;;;;7.35;2.20;;;21.10;48.80;;;;;;5062328;28;20048;-48
2023/07/02 12:22:59;;;;;;;8.35;2.00;;;21.00;50.00;;;;;;5063004;28;20458;-52
2023/07/02 12:25:27;;;;;;;7.25;1.73;;;20.60;50.30;;;;;;5076198;28;20033;-49
2023/07/02 12:27:54;;;;;;;8.40;2.20;;;20.50;50.10;;;;;;5058251;28;20051;-50
2023/07/02 12:30:21;;;;;;;7.30;2.22;;;20.90;51.70;;;;;;5044525;28;20029;-53
2023/07/02 12:32:49;;;;;;;11.13;2.70;;;21.20;52.60;;;;;;5071409;28;20047;-53
2023/07/02 12:35:18;;;;;;;14.20;3.35;;;21.00;53.80;;;;;;5060819;28;20032;-52
2023/07/02 12:37:47;;;;;;;9.10;2.85;;;21.20;53.90;;;;;;5079761;28;20131;-52
2023/07/02 12:40:14;;;;;;;13.55;4.00;;;20.90;52.20;;;;;;5084207;28;20040;-52
2023/07/02 12:42:46;;;;;;;6.57;2.75;;;20.90;55.70;;;;;;5071952;28;20029;-48